Time;durP1;ratioP1;P1;durP2;ratioP2;P2;SDS_P1;SDS_P2;PMS_P1;PMS_P2;Temp;Humidity;BMP_temperature;BMP_pressure;BME280_temperature;BME280_humidity;BME280_pressure;Samples;Min_cycle;Max_cycle;Signal;HPM_P1;HPM_P2
2023/08/10 00:00:09;;;;;;;1.95;1.83;;;;;;;;;;10284869;28;20076;-64
2023/08/10 00:05:09;;;;;;;3.28;1.88;;;;;;;;;;10288804;28;20087;-64
2023/08/10 00:10:09;;;;;;;2.85;1.77;;;;;;;;;;10287955;28;20080;-63
2023/08/10 00:15:07;;;;;;;3.83;1.70;;;;;;;;;;10289163;28;20076;-64
2023/08/10 00:20:10;;;;;;;4.63;2.35;;;;;;;;;;10285655;28;20075;-64
2023/08/10 00:25:09;;;;;;;1.90;1.70;;;;;;;;;;10282675;28;20080;-64
2023/08/10 00:30:08;;;;;;;1.98;1.80;;;;;;;;;;10287495;28;20083;-63
2023/08/10 00:35:07;;;;;;;4.10;1.90;;;;;;;;;;10292368;28;20072;-63
2023/08/10 00:40:09;;;;;;;3.67;1.70;;;;;;;;;;10294211;28;20083;-63
2023/08/10 00:45:09;;;;;;;2.15;1.80;;;;;;;;;;10291101;28;20077;-63
2023/08/10 00:50:08;;;;;;;1.80;1.50;;;;;;;;;;10294872;28;20087;-63
2023/08/10 00:55:07;;;;;;;2.15;1.98;;;;;;;;;;10294458;28;20072;-64
2023/08/10 01:00:10;;;;;;;1.90;1.80;;;;;;;;;;10295337;28;20630;-63
2023/08/10 01:05:12;;;;;;;3.33;1.73;;;;;;;;;;10295776;28;20076;-63
2023/08/10 01:10:16;;;;;;;2.42;1.90;;;;;;;;;;10300026;28;20076;-63
2023/08/10 01:15:17;;;;;;;2.17;1.77;;;;;;;;;;10293361;28;20469;-64
2023/08/10 01:20:19;;;;;;;2.85;1.70;;;;;;;;;;10292978;28;20520;-64
2023/08/10 01:25:20;;;;;;;3.85;2.22;;;;;;;;;;10291294;28;20654;-64
2023/08/10 01:30:21;;;;;;;3.63;1.73;;;;;;;;;;10287291;28;20068;-64
2023/08/10 01:35:20;;;;;;;2.28;1.70;;;;;;;;;;10288881;28;20072;-64
2023/08/10 01:40:19;;;;;;;4.22;1.75;;;;;;;;;;10287751;28;20088;-64
2023/08/10 01:45:18;;;;;;;4.30;2.10;;;;;;;;;;10290348;28;20084;-65
2023/08/10 01:50:18;;;;;;;2.53;1.88;;;;;;;;;;10288407;28;20493;-63
2023/08/10 01:55:16;;;;;;;2.25;1.65;;;;;;;;;;10287158;28;20111;-64
2023/08/10 02:00:17;;;;;;;2.97;2.03;;;;;;;;;;10288107;28;20544;-64
2023/08/10 02:05:18;;;;;;;4.32;1.80;;;;;;;;;;10290338;28;20085;-64
2023/08/10 02:10:17;;;;;;;2.63;1.98;;;;;;;;;;10290314;28;20065;-64
2023/08/10 02:15:17;;;;;;;5.03;2.65;;;;;;;;;;10294747;28;20072;-64
2023/08/10 02:20:15;;;;;;;3.25;1.90;;;;;;;;;;10286527;28;20201;-64
2023/08/10 02:26:40;;;;;;;4.80;2.03;;;;;;;;;;10328706;27;20409;-63
2023/08/10 02:31:38;;;;;;;5.15;2.75;;;;;;;;;;10322385;28;20527;-64
2023/08/10 02:36:36;;;;;;;9.75;3.20;;;;;;;;;;10326378;28;20041;-64
2023/08/10 02:41:35;;;;;;;9.65;4.22;;;;;;;;;;10325893;28;20067;-64
2023/08/10 02:46:34;;;;;;;14.20;3.80;;;;;;;;;;10325477;28;20082;-63
2023/08/10 02:51:32;;;;;;;9.90;3.20;;;;;;;;;;10323880;28;20076;-64
2023/08/10 02:56:33;;;;;;;4.28;2.80;;;;;;;;;;10324748;28;20552;-64
2023/08/10 03:01:31;;;;;;;10.65;2.70;;;;;;;;;;10323699;28;20084;-64
2023/08/10 03:06:31;;;;;;;3.55;2.83;;;;;;;;;;10309634;28;20080;-64
2023/08/10 03:11:29;;;;;;;4.05;3.10;;;;;;;;;;10321549;28;20072;-64
2023/08/10 03:16:28;;;;;;;7.32;3.30;;;;;;;;;;10307239;28;20076;-64
2023/08/10 03:21:28;;;;;;;5.57;2.22;;;;;;;;;;10308977;28;20068;-64
2023/08/10 03:26:27;;;;;;;4.43;3.05;;;;;;;;;;10322653;28;20076;-64
2023/08/10 03:31:26;;;;;;;4.30;2.50;;;;;;;;;;10304691;28;20091;-64
2023/08/10 03:36:26;;;;;;;2.72;2.40;;;;;;;;;;10316637;28;20482;-63
2023/08/10 03:41:27;;;;;;;3.55;2.55;;;;;;;;;;10277377;28;20528;-64
2023/08/10 03:46:26;;;;;;;3.63;2.33;;;;;;;;;;10285488;28;20080;-64
2023/08/10 03:51:25;;;;;;;3.25;2.17;;;;;;;;;;10295719;28;20044;-63
2023/08/10 03:56:23;;;;;;;2.92;2.65;;;;;;;;;;10293436;28;20071;-63
2023/08/10 04:01:22;;;;;;;2.95;2.40;;;;;;;;;;10282671;28;20084;-64
2023/08/10 04:06:22;;;;;;;9.93;2.63;;;;;;;;;;10294133;28;20099;-63
2023/08/10 04:11:20;;;;;;;3.08;2.50;;;;;;;;;;10281462;28;20040;-63
2023/08/10 04:16:19;;;;;;;3.85;2.50;;;;;;;;;;10293629;28;20079;-63
2023/08/10 04:21:17;;;;;;;4.55;2.42;;;;;;;;;;10292136;28;20072;-64
2023/08/10 04:26:17;;;;;;;3.15;2.53;;;;;;;;;;10295042;28;20072;-63
2023/08/10 04:31:16;;;;;;;4.57;2.35;;;;;;;;;;10291658;28;20057;-63
2023/08/10 04:36:14;;;;;;;3.08;2.67;;;;;;;;;;10291893;28;20462;-64
2023/08/10 04:41:12;;;;;;;4.68;2.65;;;;;;;;;;10296858;28;20072;-64
2023/08/10 04:46:13;;;;;;;3.60;2.75;;;;;;;;;;10290282;28;20090;-64
2023/08/10 04:51:11;;;;;;;4.13;2.72;;;;;;;;;;10292449;28;20072;-65
2023/08/10 04:56:09;;;;;;;4.53;2.97;;;;;;;;;;10294859;28;20545;-65
2023/08/10 05:01:09;;;;;;;3.22;2.22;;;;;;;;;;10292295;28;20497;-65
2023/08/10 05:06:09;;;;;;;2.50;2.30;;;;;;;;;;10292192;28;20075;-65
2023/08/10 05:11:07;;;;;;;8.50;5.45;;;;;;;;;;10292937;28;20087;-64
2023/08/10 05:16:08;;;;;;;4.43;4.03;;;;;;;;;;10291689;28;20482;-65
2023/08/10 05:21:07;;;;;;;6.43;2.90;;;;;;;;;;10289945;28;20065;-64
2023/08/10 05:26:07;;;;;;;8.85;3.10;;;;;;;;;;10287140;28;20080;-64
2023/08/10 05:31:05;;;;;;;6.78;3.30;;;;;;;;;;10290235;28;20077;-64
2023/08/10 05:36:04;;;;;;;6.00;2.75;;;;;;;;;;10291810;28;20072;-64
2023/08/10 05:41:02;;;;;;;3.95;3.00;;;;;;;;;;10289964;28;20075;-64
2023/08/10 05:46:02;;;;;;;10.23;3.05;;;;;;;;;;10289628;28;20072;-64
2023/08/10 05:51:00;;;;;;;5.82;2.30;;;;;;;;;;10291922;28;20069;-64
2023/08/10 05:55:58;;;;;;;5.10;2.95;;;;;;;;;;10291511;28;20076;-64
2023/08/10 06:00:57;;;;;;;4.32;2.47;;;;;;;;;;10290474;28;20147;-64
2023/08/10 06:05:57;;;;;;;5.20;2.63;;;;;;;;;;10288965;28;20064;-64
2023/08/10 06:10:55;;;;;;;5.03;3.10;;;;;;;;;;10292013;28;20060;-64
2023/08/10 06:15:53;;;;;;;6.18;3.28;;;;;;;;;;10287952;28;20075;-64
2023/08/10 06:20:51;;;;;;;5.88;2.20;;;;;;;;;;10288092;28;20088;-63
2023/08/10 06:25:51;;;;;;;8.75;2.90;;;;;;;;;;10275044;28;20528;-64
2023/08/10 06:30:51;;;;;;;9.80;4.13;;;;;;;;;;10277436;28;20079;-64
2023/08/10 06:35:51;;;;;;;6.95;3.70;;;;;;;;;;10281459;28;20068;-64
2023/08/10 06:40:51;;;;;;;8.35;4.20;;;;;;;;;;10276093;28;20544;-64
2023/08/10 06:45:49;;;;;;;10.02;4.88;;;;;;;;;;10286246;28;20527;-64
2023/08/10 06:50:48;;;;;;;15.50;4.75;;;;;;;;;;10285866;28;20469;-64
2023/08/10 06:55:47;;;;;;;7.95;4.90;;;;;;;;;;10282395;28;20060;-65
2023/08/10 07:00:47;;;;;;;5.47;3.88;;;;;;;;;;10284464;28;20068;-64
2023/08/10 07:05:45;;;;;;;6.03;2.80;;;;;;;;;;10284642;28;20064;-63
2023/08/10 07:10:43;;;;;;;6.72;2.75;;;;;;;;;;10289262;28;20065;-63
2023/08/10 07:15:42;;;;;;;6.78;2.63;;;;;;;;;;10277294;28;20477;-64
2023/08/10 07:20:41;;;;;;;3.15;2.55;;;;;;;;;;10291330;28;20076;-63
2023/08/10 07:25:39;;;;;;;5.07;2.13;;;;;;;;;;10283763;28;20072;-64
2023/08/10 07:30:38;;;;;;;3.75;2.42;;;;;;;;;;10291423;28;20084;-64
2023/08/10 07:35:36;;;;;;;5.00;2.40;;;;;;;;;;10293594;28;20095;-63
2023/08/10 07:40:36;;;;;;;3.85;2.30;;;;;;;;;;10295098;28;20080;-64
2023/08/10 07:45:37;;;;;;;2.65;2.00;;;;;;;;;;10297602;28;20112;-63
2023/08/10 07:50:38;;;;;;;3.38;2.50;;;;;;;;;;10296167;28;20115;-63
2023/08/10 07:55:43;;;;;;;3.85;2.55;;;;;;;;;;10293855;28;20463;-63
2023/08/10 08:00:42;;;;;;;5.43;2.58;;;;;;;;;;10293139;28;20488;-63
2023/08/10 08:05:40;;;;;;;5.40;4.00;;;;;;;;;;10295213;28;20064;-63
2023/08/10 08:10:38;;;;;;;6.88;3.42;;;;;;;;;;10294749;28;20488;-63
2023/08/10 08:15:38;;;;;;;3.85;2.63;;;;;;;;;;10295766;28;20073;-64
2023/08/10 08:20:37;;;;;;;4.90;3.80;;;;;;;;;;10292863;28;20075;-62
2023/08/10 08:25:35;;;;;;;6.30;2.88;;;;;;;;;;10290684;28;20076;-63
2023/08/10 08:30:38;;;;;;;4.90;3.10;;;;;;;;;;10293467;28;20072;-64
2023/08/10 08:35:36;;;;;;;4.45;3.33;;;;;;;;;;10294446;28;20068;-63
2023/08/10 08:40:35;;;;;;;5.65;3.35;;;;;;;;;;10294443;28;20103;-63
2023/08/10 08:45:33;;;;;;;3.95;3.00;;;;;;;;;;10293975;28;20177;-63
2023/08/10 08:50:32;;;;;;;4.45;3.38;;;;;;;;;;10291494;28;20060;-63
2023/08/10 08:55:31;;;;;;;6.78;3.78;;;;;;;;;;10288950;28;20099;-63
2023/08/10 09:00:31;;;;;;;5.53;3.72;;;;;;;;;;10293823;28;20068;-63
2023/08/10 09:05:29;;;;;;;11.93;7.57;;;;;;;;;;10294040;28;20064;-63
2023/08/10 09:10:29;;;;;;;4.65;3.00;;;;;;;;;;10292920;28;20076;-63
2023/08/10 09:15:28;;;;;;;9.00;4.88;;;;;;;;;;10289827;28;20098;-63
2023/08/10 09:20:27;;;;;;;5.72;4.32;;;;;;;;;;10294456;28;20061;-64
2023/08/10 09:25:37;;;;;;;5.68;3.35;;;;;;;;;;10289014;28;20076;-64
2023/08/10 09:30:41;;;;;;;6.88;3.83;;;;;;;;;;10290428;28;20480;-64
2023/08/10 09:35:40;;;;;;;5.10;3.88;;;;;;;;;;10292414;28;20069;-63
2023/08/10 09:40:39;;;;;;;6.15;3.83;;;;;;;;;;10290713;28;20071;-64
2023/08/10 09:45:37;;;;;;;5.00;4.13;;;;;;;;;;10289257;28;20514;-64
2023/08/10 09:50:36;;;;;;;5.05;3.33;;;;;;;;;;10292160;28;20080;-63
2023/08/10 09:55:36;;;;;;;4.60;4.00;;;;;;;;;;10291010;28;20084;-63
2023/08/10 10:00:41;;;;;;;6.00;4.97;;;;;;;;;;10291619;28;20075;-63
2023/08/10 10:05:40;;;;;;;5.30;4.72;;;;;;;;;;10291277;28;20072;-63
2023/08/10 10:10:38;;;;;;;9.32;4.40;;;;;;;;;;10292169;28;20079;-63
2023/08/10 10:15:37;;;;;;;3.97;3.65;;;;;;;;;;10291206;28;20506;-64
2023/08/10 10:20:38;;;;;;;7.25;4.18;;;;;;;;;;10287872;28;20080;-63
2023/08/10 10:25:38;;;;;;;4.57;3.60;;;;;;;;;;10287641;28;20084;-63
2023/08/10 10:30:37;;;;;;;3.70;3.28;;;;;;;;;;10289772;28;20073;-64
2023/08/10 10:35:36;;;;;;;4.90;3.85;;;;;;;;;;10290129;28;20076;-64
2023/08/10 10:40:35;;;;;;;4.40;4.00;;;;;;;;;;10290874;28;20076;-64
2023/08/10 10:45:36;;;;;;;3.38;2.90;;;;;;;;;;10270022;28;20313;-63
2023/08/10 10:50:36;;;;;;;3.78;3.17;;;;;;;;;;10295987;28;20072;-64
2023/08/10 10:55:39;;;;;;;5.95;2.90;;;;;;;;;;10295866;28;20061;-63
2023/08/10 11:00:37;;;;;;;6.70;2.67;;;;;;;;;;10296653;28;20069;-63
2023/08/10 11:05:37;;;;;;;4.50;2.95;;;;;;;;;;10296695;28;20085;-64
2023/08/10 11:10:36;;;;;;;3.38;2.90;;;;;;;;;;10296812;28;20805;-63
2023/08/10 11:15:36;;;;;;;3.83;3.20;;;;;;;;;;10297017;28;20071;-64
2023/08/10 11:20:34;;;;;;;3.13;2.83;;;;;;;;;;10298449;28;20517;-64
2023/08/10 11:25:34;;;;;;;3.17;2.88;;;;;;;;;;10295236;28;20529;-64
2023/08/10 11:30:32;;;;;;;4.22;2.53;;;;;;;;;;10292952;28;20072;-63
2023/08/10 11:35:31;;;;;;;3.33;2.72;;;;;;;;;;10296835;28;20119;-63
2023/08/10 11:40:30;;;;;;;2.55;2.33;;;;;;;;;;10297851;28;20069;-63
2023/08/10 11:45:33;;;;;;;5.90;2.25;;;;;;;;;;10295039;28;20095;-63
2023/08/10 11:50:31;;;;;;;4.78;2.40;;;;;;;;;;10295193;28;20099;-63
2023/08/10 11:55:29;;;;;;;2.72;2.47;;;;;;;;;;10294703;28;20502;-62
2023/08/10 12:00:30;;;;;;;2.75;2.55;;;;;;;;;;10295420;28;20068;-62
2023/08/10 12:05:35;;;;;;;7.45;2.22;;;;;;;;;;10296440;28;20501;-62
2023/08/10 12:10:36;;;;;;;3.95;2.60;;;;;;;;;;10292127;28;20072;-63
2023/08/10 12:15:37;;;;;;;2.60;2.35;;;;;;;;;;10291274;28;20087;-64
2023/08/10 12:20:38;;;;;;;11.98;3.60;;;;;;;;;;10296324;28;20080;-64
2023/08/10 12:25:37;;;;;;;2.95;2.17;;;;;;;;;;10293652;28;20091;-63
2023/08/10 12:30:35;;;;;;;2.63;2.17;;;;;;;;;;10294051;28;20072;-63
2023/08/10 12:35:33;;;;;;;4.55;2.33;;;;;;;;;;10295920;28;20107;-63
2023/08/10 12:40:33;;;;;;;3.47;2.00;;;;;;;;;;10294322;28;20065;-64
2023/08/10 12:45:31;;;;;;;2.83;1.88;;;;;;;;;;10294022;28;20068;-64
2023/08/10 12:50:30;;;;;;;3.22;2.17;;;;;;;;;;10294405;28;20076;-64
2023/08/10 12:55:29;;;;;;;4.43;2.33;;;;;;;;;;10294417;28;20088;-64
2023/08/10 13:00:31;;;;;;;2.97;2.17;;;;;;;;;;10293171;28;20060;-62
2023/08/10 13:05:29;;;;;;;3.00;2.55;;;;;;;;;;10293948;28;20092;-62
2023/08/10 13:10:27;;;;;;;4.38;2.67;;;;;;;;;;10289376;28;20064;-63
2023/08/10 13:15:25;;;;;;;2.65;2.28;;;;;;;;;;10289479;28;20076;-63
2023/08/10 13:20:25;;;;;;;4.05;2.38;;;;;;;;;;10290729;28;20099;-62
2023/08/10 13:25:23;;;;;;;4.50;3.00;;;;;;;;;;10292337;28;20564;-62
2023/08/10 13:30:22;;;;;;;3.80;2.72;;;;;;;;;;10292172;28;20069;-64
2023/08/10 13:35:21;;;;;;;6.43;2.85;;;;;;;;;;10291492;28;20519;-63
2023/08/10 13:40:21;;;;;;;3.78;3.33;;;;;;;;;;10288958;28;20132;-63
2023/08/10 13:45:19;;;;;;;3.63;2.80;;;;;;;;;;10291769;28;20068;-62
2023/08/10 13:50:18;;;;;;;3.25;2.55;;;;;;;;;;10290910;28;20076;-63
2023/08/10 13:55:16;;;;;;;5.85;3.08;;;;;;;;;;10291358;28;20083;-63
2023/08/10 14:00:16;;;;;;;3.58;2.85;;;;;;;;;;10288480;28;20114;-62
2023/08/10 14:05:14;;;;;;;5.15;2.85;;;;;;;;;;10289928;28;20098;-62
2023/08/10 14:10:12;;;;;;;3.28;2.70;;;;;;;;;;10290150;28;20071;-63
2023/08/10 14:15:11;;;;;;;3.53;3.17;;;;;;;;;;10292006;28;20075;-63
2023/08/10 14:20:12;;;;;;;3.03;2.72;;;;;;;;;;10289330;28;20079;-63
2023/08/10 14:25:13;;;;;;;2.30;2.10;;;;;;;;;;10288168;28;20088;-64
2023/08/10 14:30:12;;;;;;;2.90;2.28;;;;;;;;;;10287199;28;20565;-63
2023/08/10 14:35:12;;;;;;;3.35;2.58;;;;;;;;;;10289855;28;20112;-63
2023/08/10 14:40:11;;;;;;;2.78;2.35;;;;;;;;;;10290949;28;20072;-63
2023/08/10 14:45:11;;;;;;;3.08;2.45;;;;;;;;;;10292099;28;20084;-63
2023/08/10 14:50:14;;;;;;;4.95;3.20;;;;;;;;;;10287535;28;20088;-63
2023/08/10 14:55:12;;;;;;;3.55;2.78;;;;;;;;;;10290544;28;20077;-63
2023/08/10 15:00:19;;;;;;;4.07;2.67;;;;;;;;;;10290461;28;20064;-63
2023/08/10 15:05:19;;;;;;;3.90;3.00;;;;;;;;;;10289554;28;20072;-63
2023/08/10 15:10:17;;;;;;;5.50;4.95;;;;;;;;;;10290407;28;20080;-62
2023/08/10 15:15:16;;;;;;;4.40;3.38;;;;;;;;;;10290806;28;20437;-63
2023/08/10 15:20:17;;;;;;;5.10;3.33;;;;;;;;;;10287927;28;20515;-64
2023/08/10 15:25:20;;;;;;;6.87;3.63;;;;;;;;;;10286126;28;20069;-64
2023/08/10 15:30:18;;;;;;;4.53;3.67;;;;;;;;;;10288488;28;20284;-64
2023/08/10 15:35:16;;;;;;;6.18;4.90;;;;;;;;;;10294752;28;20528;-63
2023/08/10 15:40:14;;;;;;;4.03;3.58;;;;;;;;;;10296305;28;20087;-64
2023/08/10 15:45:14;;;;;;;8.70;5.32;;;;;;;;;;10296191;28;20072;-63
2023/08/10 15:50:13;;;;;;;8.43;5.40;;;;;;;;;;10295100;28;20080;-63
2023/08/10 15:55:13;;;;;;;6.22;5.32;;;;;;;;;;10293102;28;20084;-63
2023/08/10 16:00:13;;;;;;;5.03;4.10;;;;;;;;;;10296402;28;20075;-63
2023/08/10 16:05:12;;;;;;;6.93;6.20;;;;;;;;;;10292118;28;20072;-64
2023/08/10 16:10:11;;;;;;;6.82;5.68;;;;;;;;;;10295967;28;20679;-63
2023/08/10 16:15:09;;;;;;;6.95;5.03;;;;;;;;;;10293266;28;20363;-63
2023/08/10 16:20:09;;;;;;;5.90;5.15;;;;;;;;;;10295135;28;20443;-62
2023/08/10 16:25:10;;;;;;;5.55;4.68;;;;;;;;;;10293273;28;20076;-63
2023/08/10 16:30:09;;;;;;;5.35;4.85;;;;;;;;;;10293782;28;20083;-63
2023/08/10 16:35:09;;;;;;;5.15;4.50;;;;;;;;;;10294278;28;20083;-63
2023/08/10 16:40:09;;;;;;;6.55;5.85;;;;;;;;;;10294708;28;20076;-63
2023/08/10 16:45:09;;;;;;;5.47;4.97;;;;;;;;;;10292861;28;20080;-64
2023/08/10 16:50:08;;;;;;;5.10;4.60;;;;;;;;;;10294169;28;20092;-64
2023/08/10 16:55:07;;;;;;;5.63;4.60;;;;;;;;;;10293540;28;20581;-63
2023/08/10 17:00:08;;;;;;;5.30;4.63;;;;;;;;;;10292635;28;20538;-63
2023/08/10 17:05:09;;;;;;;5.10;4.60;;;;;;;;;;10290837;28;20540;-63
2023/08/10 17:10:08;;;;;;;6.82;4.00;;;;;;;;;;10291291;28;20068;-64
2023/08/10 17:15:07;;;;;;;4.60;4.20;;;;;;;;;;10292312;28;20079;-63
2023/08/10 17:20:06;;;;;;;4.10;3.80;;;;;;;;;;10292638;28;20466;-63
2023/08/10 17:25:08;;;;;;;4.05;3.65;;;;;;;;;;10291459;28;20577;-63
2023/08/10 17:30:06;;;;;;;9.10;4.35;;;;;;;;;;10293576;28;20533;-63
2023/08/10 17:35:06;;;;;;;5.57;3.85;;;;;;;;;;10292829;28;20072;-62
2023/08/10 17:40:09;;;;;;;5.15;4.75;;;;;;;;;;10292075;28;20073;-63
2023/08/10 17:45:08;;;;;;;6.15;4.47;;;;;;;;;;10291344;28;20084;-63
2023/08/10 17:50:07;;;;;;;6.68;4.70;;;;;;;;;;10289211;28;20072;-63
2023/08/10 17:55:08;;;;;;;5.30;4.80;;;;;;;;;;10290923;28;20091;-63
2023/08/10 18:00:10;;;;;;;5.00;4.50;;;;;;;;;;10291743;28;20747;-63
2023/08/10 18:05:11;;;;;;;;;;;;;;;;;;10292898;28;20128;-63
2023/08/10 18:10:12;;;;;;;5.32;4.82;;;;;;;;;;10287553;28;19959;-63
2023/08/10 18:15:10;;;;;;;5.28;4.78;;;;;;;;;;10289957;28;20091;-63
2023/08/10 18:20:09;;;;;;;5.75;4.70;;;;;;;;;;10290152;28;20088;-65
2023/08/10 18:25:10;;;;;;;5.25;4.47;;;;;;;;;;10290623;28;20099;-63
2023/08/10 18:30:14;;;;;;;5.65;4.60;;;;;;;;;;10289155;28;20067;-64
2023/08/10 18:35:12;;;;;;;4.93;4.43;;;;;;;;;;10290315;28;20072;-64
2023/08/10 18:40:11;;;;;;;4.00;3.70;;;;;;;;;;10288919;28;20264;-64
2023/08/10 18:45:10;;;;;;;4.25;3.85;;;;;;;;;;10286733;28;20068;-63
2023/08/10 18:50:10;;;;;;;4.35;3.85;;;;;;;;;;10289596;28;20080;-64
2023/08/10 18:55:09;;;;;;;4.25;3.85;;;;;;;;;;10288946;28;20420;-63
2023/08/10 19:00:10;;;;;;;6.10;3.85;;;;;;;;;;10289865;28;20150;-64
2023/08/10 19:05:10;;;;;;;4.13;3.70;;;;;;;;;;10290417;28;20075;-65
2023/08/10 19:10:11;;;;;;;4.90;4.47;;;;;;;;;;10298061;28;20140;-64
2023/08/10 19:15:10;;;;;;;6.95;4.00;;;;;;;;;;10299106;28;20303;-64
2023/08/10 19:20:10;;;;;;;5.45;4.38;;;;;;;;;;10298801;28;20095;-63
2023/08/10 19:25:09;;;;;;;4.35;3.67;;;;;;;;;;10296578;28;20552;-63
2023/08/10 19:30:07;;;;;;;5.65;3.88;;;;;;;;;;10298599;28;20080;-63
2023/08/10 19:35:06;;;;;;;5.07;3.15;;;;;;;;;;10295120;28;20087;-63
2023/08/10 19:40:14;;;;;;;5.35;4.00;;;;;;;;;;10296944;28;20107;-63
2023/08/10 19:45:12;;;;;;;4.22;3.83;;;;;;;;;;10296056;28;20072;-63
2023/08/10 19:50:11;;;;;;;4.55;4.15;;;;;;;;;;10294124;28;20505;-63
2023/08/10 19:55:11;;;;;;;5.78;4.03;;;;;;;;;;10296085;28;20073;-63
2023/08/10 20:00:12;;;;;;;4.43;3.90;;;;;;;;;;10294153;28;20453;-63
2023/08/10 20:05:13;;;;;;;4.03;3.63;;;;;;;;;;10294263;28;20093;-63
2023/08/10 20:10:13;;;;;;;5.93;3.63;;;;;;;;;;10291883;28;20541;-64
2023/08/10 20:15:11;;;;;;;4.18;3.78;;;;;;;;;;10290183;28;20576;-64
2023/08/10 20:20:12;;;;;;;5.00;3.65;;;;;;;;;;10290780;28;20060;-64
2023/08/10 20:25:10;;;;;;;3.80;3.38;;;;;;;;;;10277703;28;20076;-63
2023/08/10 20:30:11;;;;;;;4.43;4.03;;;;;;;;;;10285347;28;20064;-64
2023/08/10 20:35:10;;;;;;;5.65;3.72;;;;;;;;;;10292259;28;20072;-64
2023/08/10 20:40:09;;;;;;;4.68;4.10;;;;;;;;;;10293083;28;20099;-64
2023/08/10 20:45:08;;;;;;;5.13;4.10;;;;;;;;;;10294877;28;20165;-63
2023/08/10 20:50:09;;;;;;;4.53;4.03;;;;;;;;;;10293528;28;20080;-63
2023/08/10 20:55:07;;;;;;;5.28;3.95;;;;;;;;;;10293947;28;20909;-63
2023/08/10 21:00:07;;;;;;;5.00;3.90;;;;;;;;;;10285194;28;20076;-63
2023/08/10 21:05:08;;;;;;;4.30;3.50;;;;;;;;;;10290730;28;20076;-63
2023/08/10 21:10:07;;;;;;;5.43;4.50;;;;;;;;;;10291842;28;20079;-64
2023/08/10 21:15:07;;;;;;;5.35;4.03;;;;;;;;;;10292493;28;20509;-64
2023/08/10 21:20:10;;;;;;;4.25;3.70;;;;;;;;;;10289021;28;20091;-63
2023/08/10 21:25:09;;;;;;;4.05;3.75;;;;;;;;;;10283571;28;20073;-65
2023/08/10 21:30:08;;;;;;;6.30;3.90;;;;;;;;;;10281259;28;20064;-63
2023/08/10 21:35:06;;;;;;;4.47;4.07;;;;;;;;;;10290196;28;20116;-62
2023/08/10 21:40:08;;;;;;;3.85;3.55;;;;;;;;;;10284035;28;20088;-64
2023/08/10 21:45:07;;;;;;;6.82;3.78;;;;;;;;;;10291259;28;20531;-63
2023/08/10 21:50:05;;;;;;;6.25;3.45;;;;;;;;;;10291099;28;20115;-63
2023/08/10 21:55:04;;;;;;;4.72;3.53;;;;;;;;;;10289479;28;20087;-63
2023/08/10 22:00:07;;;;;;;4.72;3.60;;;;;;;;;;10291825;28;20084;-62
2023/08/10 22:05:06;;;;;;;4.07;3.28;;;;;;;;;;10295164;28;20490;-63
2023/08/10 22:10:04;;;;;;;4.53;4.10;;;;;;;;;;10290719;28;20076;-62
2023/08/10 22:15:05;;;;;;;4.28;3.92;;;;;;;;;;10283607;28;20463;-63
2023/08/10 22:20:06;;;;;;;4.60;3.80;;;;;;;;;;10286511;28;20446;-62
2023/08/10 22:25:05;;;;;;;3.60;3.30;;;;;;;;;;10285633;28;20084;-62
2023/08/10 22:30:05;;;;;;;4.57;3.42;;;;;;;;;;10287165;28;20120;-62
2023/08/10 22:35:04;;;;;;;3.90;3.33;;;;;;;;;;10287642;28;20072;-62
2023/08/10 22:40:05;;;;;;;3.97;3.50;;;;;;;;;;10289385;28;20073;-63
2023/08/10 22:45:06;;;;;;;3.90;3.47;;;;;;;;;;10289820;28;20077;-61
2023/08/10 22:50:05;;;;;;;3.40;3.10;;;;;;;;;;10296978;28;20065;-61
2023/08/10 22:55:04;;;;;;;4.47;3.42;;;;;;;;;;10294337;28;20084;-63
2023/08/10 23:00:03;;;;;;;8.20;3.60;;;;;;;;;;10298056;28;20088;-63
2023/08/10 23:05:04;;;;;;;5.10;3.50;;;;;;;;;;10299012;28;20072;-63
2023/08/10 23:10:05;;;;;;;4.80;3.40;;;;;;;;;;10296806;28;20111;-63
2023/08/10 23:15:04;;;;;;;3.30;3.00;;;;;;;;;;10296504;28;20068;-63
2023/08/10 23:20:11;;;;;;;6.65;3.30;;;;;;;;;;10295883;28;20084;-63
2023/08/10 23:25:11;;;;;;;6.15;4.03;;;;;;;;;;10295659;28;20095;-63
2023/08/10 23:30:11;;;;;;;4.03;3.55;;;;;;;;;;10294066;28;20076;-64
2023/08/10 23:35:12;;;;;;;5.05;3.70;;;;;;;;;;10294997;28;20076;-63
2023/08/10 23:40:12;;;;;;;4.15;3.38;;;;;;;;;;10295484;28;20079;-63
2023/08/10 23:45:12;;;;;;;4.25;3.70;;;;;;;;;;10292304;28;20091;-63
2023/08/10 23:50:12;;;;;;;6.35;4.03;;;;;;;;;;10296831;28;20088;-63
2023/08/10 23:55:11;;;;;;;3.72;3.42;;;;;;;;;;10295701;28;20068;-63
